sensor_id;sensor_type;location;lat;lon;timestamp;P1;durP1;ratioP1;P2;durP2;ratioP2
1613;SDS011;800;48.824;9.346;2023-03-01T00:01:49;17.83;;;13.87;;
1613;SDS011;800;48.824;9.346;2023-03-01T00:04:14;17.73;;;13.10;;
1613;SDS011;800;48.824;9.346;2023-03-01T00:06:41;16.40;;;11.47;;
1613;SDS011;800;48.824;9.346;2023-03-01T00:09:08;19.87;;;12.57;;
1613;SDS011;800;48.824;9.346;2023-03-01T00:11:33;17.63;;;12.80;;
1613;SDS011;800;48.824;9.346;2023-03-01T00:14:00;20.73;;;13.13;;
1613;SDS011;800;48.824;9.346;2023-03-01T00:16:30;18.10;;;12.70;;
1613;SDS011;800;48.824;9.346;2023-03-01T00:18:59;16.90;;;13.00;;
1613;SDS011;800;48.824;9.346;2023-03-01T00:21:24;19.73;;;13.77;;
1613;SDS011;800;48.824;9.346;2023-03-01T00:23:51;19.37;;;14.60;;
1613;SDS011;800;48.824;9.346;2023-03-01T00:26:17;14.93;;;11.20;;
1613;SDS011;800;48.824;9.346;2023-03-01T00:28:44;17.43;;;12.47;;
1613;SDS011;800;48.824;9.346;2023-03-01T00:31:11;15.63;;;12.33;;
1613;SDS011;800;48.824;9.346;2023-03-01T00:33:38;17.17;;;12.73;;
1613;SDS011;800;48.824;9.346;2023-03-01T00:36:04;17.47;;;12.20;;
1613;SDS011;800;48.824;9.346;2023-03-01T00:38:34;14.67;;;12.30;;
1613;SDS011;800;48.824;9.346;2023-03-01T00:41:08;17.43;;;12.80;;
1613;SDS011;800;48.824;9.346;2023-03-01T00:43:35;19.40;;;12.87;;
1613;SDS011;800;48.824;9.346;2023-03-01T00:46:07;17.17;;;13.67;;
1613;SDS011;800;48.824;9.346;2023-03-01T00:48:38;17.50;;;12.73;;
1613;SDS011;800;48.824;9.346;2023-03-01T00:51:18;19.90;;;13.23;;
1613;SDS011;800;48.824;9.346;2023-03-01T00:53:46;17.17;;;11.83;;
1613;SDS011;800;48.824;9.346;2023-03-01T00:56:14;17.83;;;12.57;;
1613;SDS011;800;48.824;9.346;2023-03-01T00:58:40;16.33;;;11.70;;
1613;SDS011;800;48.824;9.346;2023-03-01T01:01:17;17.57;;;13.07;;
1613;SDS011;800;48.824;9.346;2023-03-01T01:03:46;19.07;;;12.93;;
1613;SDS011;800;48.824;9.346;2023-03-01T01:06:14;19.30;;;12.47;;
1613;SDS011;800;48.824;9.346;2023-03-01T01:08:47;18.03;;;12.63;;
1613;SDS011;800;48.824;9.346;2023-03-01T01:11:14;16.30;;;12.77;;
1613;SDS011;800;48.824;9.346;2023-03-01T01:13:40;17.77;;;12.57;;
1613;SDS011;800;48.824;9.346;2023-03-01T01:16:06;16.23;;;13.00;;
1613;SDS011;800;48.824;9.346;2023-03-01T01:18:32;17.57;;;12.40;;
1613;SDS011;800;48.824;9.346;2023-03-01T01:21:02;17.87;;;12.30;;
1613;SDS011;800;48.824;9.346;2023-03-01T01:23:29;16.40;;;11.97;;
1613;SDS011;800;48.824;9.346;2023-03-01T01:25:55;17.50;;;11.97;;
1613;SDS011;800;48.824;9.346;2023-03-01T01:28:21;15.43;;;12.10;;
1613;SDS011;800;48.824;9.346;2023-03-01T01:30:46;17.47;;;11.90;;
1613;SDS011;800;48.824;9.346;2023-03-01T01:33:12;19.03;;;11.90;;
1613;SDS011;800;48.824;9.346;2023-03-01T01:35:37;22.27;;;13.57;;
1613;SDS011;800;48.824;9.346;2023-03-01T01:38:03;19.87;;;13.50;;
1613;SDS011;800;48.824;9.346;2023-03-01T01:40:29;19.23;;;13.70;;
1613;SDS011;800;48.824;9.346;2023-03-01T01:42:54;25.73;;;13.33;;
1613;SDS011;800;48.824;9.346;2023-03-01T01:48:01;26.60;;;12.93;;
1613;SDS011;800;48.824;9.346;2023-03-01T01:50:38;25.73;;;14.57;;
1613;SDS011;800;48.824;9.346;2023-03-01T01:53:06;20.50;;;14.23;;
1613;SDS011;800;48.824;9.346;2023-03-01T01:55:35;17.17;;;13.17;;
1613;SDS011;800;48.824;9.346;2023-03-01T01:58:05;17.43;;;13.37;;
1613;SDS011;800;48.824;9.346;2023-03-01T02:00:34;21.03;;;12.97;;
1613;SDS011;800;48.824;9.346;2023-03-01T02:03:03;17.80;;;13.20;;
1613;SDS011;800;48.824;9.346;2023-03-01T02:08:19;17.03;;;12.77;;
1613;SDS011;800;48.824;9.346;2023-03-01T02:10:46;17.63;;;12.57;;
1613;SDS011;800;48.824;9.346;2023-03-01T02:13:14;17.33;;;12.53;;
1613;SDS011;800;48.824;9.346;2023-03-01T02:15:40;17.80;;;12.47;;
1613;SDS011;800;48.824;9.346;2023-03-01T02:18:06;19.13;;;12.47;;
1613;SDS011;800;48.824;9.346;2023-03-01T02:23:29;19.57;;;12.37;;
1613;SDS011;800;48.824;9.346;2023-03-01T02:25:57;16.93;;;12.97;;
1613;SDS011;800;48.824;9.346;2023-03-01T02:28:37;17.47;;;12.70;;
1613;SDS011;800;48.824;9.346;2023-03-01T02:31:05;17.80;;;13.63;;
1613;SDS011;800;48.824;9.346;2023-03-01T02:33:52;15.70;;;11.90;;
1613;SDS011;800;48.824;9.346;2023-03-01T02:36:23;18.60;;;13.00;;
1613;SDS011;800;48.824;9.346;2023-03-01T02:38:52;16.70;;;12.00;;
1613;SDS011;800;48.824;9.346;2023-03-01T02:41:21;18.43;;;12.27;;
1613;SDS011;800;48.824;9.346;2023-03-01T02:43:48;17.27;;;12.90;;
1613;SDS011;800;48.824;9.346;2023-03-01T02:46:16;20.80;;;13.30;;
1613;SDS011;800;48.824;9.346;2023-03-01T02:48:48;18.67;;;12.30;;
1613;SDS011;800;48.824;9.346;2023-03-01T02:53:56;16.17;;;11.77;;
1613;SDS011;800;48.824;9.346;2023-03-01T02:56:33;15.63;;;11.90;;
1613;SDS011;800;48.824;9.346;2023-03-01T02:58:59;20.00;;;12.57;;
1613;SDS011;800;48.824;9.346;2023-03-01T03:01:25;14.10;;;10.97;;
1613;SDS011;800;48.824;9.346;2023-03-01T03:04:05;17.10;;;12.27;;
1613;SDS011;800;48.824;9.346;2023-03-01T03:06:32;20.10;;;13.63;;
1613;SDS011;800;48.824;9.346;2023-03-01T03:08:58;17.43;;;12.43;;
1613;SDS011;800;48.824;9.346;2023-03-01T03:11:24;14.83;;;13.03;;
1613;SDS011;800;48.824;9.346;2023-03-01T03:13:51;17.60;;;12.67;;
1613;SDS011;800;48.824;9.346;2023-03-01T03:16:17;17.57;;;13.27;;
1613;SDS011;800;48.824;9.346;2023-03-01T03:18:43;19.07;;;12.00;;
1613;SDS011;800;48.824;9.346;2023-03-01T03:21:08;15.83;;;12.10;;
1613;SDS011;800;48.824;9.346;2023-03-01T03:23:36;18.97;;;12.23;;
1613;SDS011;800;48.824;9.346;2023-03-01T03:26:03;16.03;;;11.57;;
1613;SDS011;800;48.824;9.346;2023-03-01T03:28:30;18.93;;;11.30;;
1613;SDS011;800;48.824;9.346;2023-03-01T03:31:00;15.13;;;11.63;;
1613;SDS011;800;48.824;9.346;2023-03-01T03:33:29;15.93;;;12.00;;
1613;SDS011;800;48.824;9.346;2023-03-01T03:35:55;16.50;;;12.50;;
1613;SDS011;800;48.824;9.346;2023-03-01T03:38:21;18.90;;;12.30;;
1613;SDS011;800;48.824;9.346;2023-03-01T03:40:50;18.33;;;12.50;;
1613;SDS011;800;48.824;9.346;2023-03-01T03:43:18;18.17;;;12.40;;
1613;SDS011;800;48.824;9.346;2023-03-01T03:45:47;19.60;;;12.93;;
1613;SDS011;800;48.824;9.346;2023-03-01T03:48:14;19.13;;;13.03;;
1613;SDS011;800;48.824;9.346;2023-03-01T03:50:40;20.00;;;14.57;;
1613;SDS011;800;48.824;9.346;2023-03-01T03:53:07;20.43;;;13.63;;
1613;SDS011;800;48.824;9.346;2023-03-01T03:55:35;19.23;;;14.27;;
1613;SDS011;800;48.824;9.346;2023-03-01T03:58:04;14.00;;;11.37;;
1613;SDS011;800;48.824;9.346;2023-03-01T04:00:34;15.13;;;11.97;;
1613;SDS011;800;48.824;9.346;2023-03-01T04:03:01;19.17;;;12.77;;
1613;SDS011;800;48.824;9.346;2023-03-01T04:05:27;18.83;;;13.60;;
1613;SDS011;800;48.824;9.346;2023-03-01T04:07:53;17.87;;;12.27;;
1613;SDS011;800;48.824;9.346;2023-03-01T04:10:26;17.93;;;13.47;;
1613;SDS011;800;48.824;9.346;2023-03-01T04:12:56;17.70;;;13.20;;
1613;SDS011;800;48.824;9.346;2023-03-01T04:15:23;18.60;;;13.47;;
1613;SDS011;800;48.824;9.346;2023-03-01T04:17:50;16.60;;;13.17;;
1613;SDS011;800;48.824;9.346;2023-03-01T04:20:20;18.07;;;13.13;;
1613;SDS011;800;48.824;9.346;2023-03-01T04:23:12;20.73;;;13.40;;
1613;SDS011;800;48.824;9.346;2023-03-01T04:28:19;19.40;;;13.60;;
1613;SDS011;800;48.824;9.346;2023-03-01T04:30:52;19.03;;;12.90;;
1613;SDS011;800;48.824;9.346;2023-03-01T04:33:19;21.57;;;13.83;;
1613;SDS011;800;48.824;9.346;2023-03-01T04:35:45;20.93;;;13.73;;
1613;SDS011;800;48.824;9.346;2023-03-01T04:38:11;19.90;;;14.33;;
1613;SDS011;800;48.824;9.346;2023-03-01T04:40:37;19.27;;;12.10;;
1613;SDS011;800;48.824;9.346;2023-03-01T04:43:03;20.57;;;13.10;;
1613;SDS011;800;48.824;9.346;2023-03-01T04:45:29;19.93;;;13.20;;
1613;SDS011;800;48.824;9.346;2023-03-01T04:47:56;16.73;;;13.00;;
1613;SDS011;800;48.824;9.346;2023-03-01T04:50:23;22.67;;;13.50;;
1613;SDS011;800;48.824;9.346;2023-03-01T04:52:50;18.97;;;13.90;;
1613;SDS011;800;48.824;9.346;2023-03-01T04:55:16;20.07;;;14.20;;
1613;SDS011;800;48.824;9.346;2023-03-01T04:57:42;18.00;;;13.30;;
1613;SDS011;800;48.824;9.346;2023-03-01T05:00:10;20.03;;;11.63;;
1613;SDS011;800;48.824;9.346;2023-03-01T05:02:52;17.73;;;12.73;;
1613;SDS011;800;48.824;9.346;2023-03-01T05:05:20;22.50;;;13.50;;
1613;SDS011;800;48.824;9.346;2023-03-01T05:07:52;21.10;;;14.23;;
1613;SDS011;800;48.824;9.346;2023-03-01T05:10:18;18.90;;;13.60;;
1613;SDS011;800;48.824;9.346;2023-03-01T05:12:44;16.40;;;13.50;;
1613;SDS011;800;48.824;9.346;2023-03-01T05:15:10;17.00;;;12.70;;
1613;SDS011;800;48.824;9.346;2023-03-01T05:17:35;17.43;;;13.80;;
1613;SDS011;800;48.824;9.346;2023-03-01T05:20:01;20.70;;;14.10;;
1613;SDS011;800;48.824;9.346;2023-03-01T05:22:31;20.30;;;13.37;;
1613;SDS011;800;48.824;9.346;2023-03-01T05:24:56;17.67;;;13.37;;
1613;SDS011;800;48.824;9.346;2023-03-01T05:27:22;19.90;;;13.80;;
1613;SDS011;800;48.824;9.346;2023-03-01T05:29:47;21.30;;;13.87;;
1613;SDS011;800;48.824;9.346;2023-03-01T05:32:13;18.57;;;13.60;;
1613;SDS011;800;48.824;9.346;2023-03-01T05:34:40;18.07;;;13.23;;
1613;SDS011;800;48.824;9.346;2023-03-01T05:37:06;19.30;;;13.17;;
1613;SDS011;800;48.824;9.346;2023-03-01T05:39:32;18.97;;;12.93;;
1613;SDS011;800;48.824;9.346;2023-03-01T05:41:59;20.33;;;14.60;;
1613;SDS011;800;48.824;9.346;2023-03-01T05:44:26;20.30;;;15.93;;
1613;SDS011;800;48.824;9.346;2023-03-01T05:46:53;20.10;;;13.83;;
1613;SDS011;800;48.824;9.346;2023-03-01T05:49:19;19.73;;;14.23;;
1613;SDS011;800;48.824;9.346;2023-03-01T05:51:49;19.80;;;12.80;;
1613;SDS011;800;48.824;9.346;2023-03-01T05:54:15;16.83;;;12.90;;
1613;SDS011;800;48.824;9.346;2023-03-01T05:56:41;19.93;;;14.20;;
1613;SDS011;800;48.824;9.346;2023-03-01T05:59:08;19.20;;;14.43;;
1613;SDS011;800;48.824;9.346;2023-03-01T06:01:34;19.07;;;14.70;;
1613;SDS011;800;48.824;9.346;2023-03-01T06:04:01;19.20;;;14.33;;
1613;SDS011;800;48.824;9.346;2023-03-01T06:06:27;23.30;;;15.60;;
1613;SDS011;800;48.824;9.346;2023-03-01T06:08:54;20.47;;;15.20;;
1613;SDS011;800;48.824;9.346;2023-03-01T06:11:20;26.40;;;18.40;;
1613;SDS011;800;48.824;9.346;2023-03-01T06:13:46;23.20;;;18.20;;
1613;SDS011;800;48.824;9.346;2023-03-01T06:16:12;24.73;;;17.70;;
1613;SDS011;800;48.824;9.346;2023-03-01T06:18:38;26.63;;;18.83;;
1613;SDS011;800;48.824;9.346;2023-03-01T06:21:05;28.07;;;15.60;;
1613;SDS011;800;48.824;9.346;2023-03-01T06:23:31;21.33;;;12.37;;
1613;SDS011;800;48.824;9.346;2023-03-01T06:25:57;18.33;;;12.90;;
1613;SDS011;800;48.824;9.346;2023-03-01T06:28:23;16.23;;;13.00;;
1613;SDS011;800;48.824;9.346;2023-03-01T06:30:49;24.53;;;15.60;;
1613;SDS011;800;48.824;9.346;2023-03-01T06:33:16;19.53;;;14.77;;
1613;SDS011;800;48.824;9.346;2023-03-01T06:35:44;20.10;;;14.93;;
1613;SDS011;800;48.824;9.346;2023-03-01T06:38:13;27.03;;;15.50;;
1613;SDS011;800;48.824;9.346;2023-03-01T06:40:44;18.57;;;14.40;;
1613;SDS011;800;48.824;9.346;2023-03-01T06:43:15;16.80;;;14.10;;
1613;SDS011;800;48.824;9.346;2023-03-01T06:45:41;16.43;;;14.17;;
1613;SDS011;800;48.824;9.346;2023-03-01T06:48:07;17.77;;;13.90;;
1613;SDS011;800;48.824;9.346;2023-03-01T06:50:33;19.53;;;14.47;;
1613;SDS011;800;48.824;9.346;2023-03-01T06:53:00;18.60;;;14.20;;
1613;SDS011;800;48.824;9.346;2023-03-01T06:55:26;19.97;;;15.10;;
1613;SDS011;800;48.824;9.346;2023-03-01T06:57:58;17.73;;;14.23;;
1613;SDS011;800;48.824;9.346;2023-03-01T07:00:25;18.57;;;13.60;;
1613;SDS011;800;48.824;9.346;2023-03-01T07:02:51;19.53;;;14.70;;
1613;SDS011;800;48.824;9.346;2023-03-01T07:05:17;17.60;;;13.93;;
1613;SDS011;800;48.824;9.346;2023-03-01T07:07:42;21.23;;;14.33;;
1613;SDS011;800;48.824;9.346;2023-03-01T07:10:08;22.40;;;14.50;;
1613;SDS011;800;48.824;9.346;2023-03-01T07:12:35;19.43;;;15.00;;
1613;SDS011;800;48.824;9.346;2023-03-01T07:15:00;20.07;;;14.97;;
1613;SDS011;800;48.824;9.346;2023-03-01T07:17:26;22.40;;;15.67;;
1613;SDS011;800;48.824;9.346;2023-03-01T07:19:51;20.57;;;14.33;;
1613;SDS011;800;48.824;9.346;2023-03-01T07:22:17;19.57;;;14.20;;
1613;SDS011;800;48.824;9.346;2023-03-01T07:24:43;18.97;;;15.73;;
1613;SDS011;800;48.824;9.346;2023-03-01T07:27:09;20.80;;;14.63;;
1613;SDS011;800;48.824;9.346;2023-03-01T07:29:35;19.33;;;14.43;;
1613;SDS011;800;48.824;9.346;2023-03-01T07:32:01;18.70;;;14.63;;
1613;SDS011;800;48.824;9.346;2023-03-01T07:34:28;20.00;;;15.60;;
1613;SDS011;800;48.824;9.346;2023-03-01T07:36:53;18.60;;;14.23;;
1613;SDS011;800;48.824;9.346;2023-03-01T07:39:19;18.03;;;14.20;;
1613;SDS011;800;48.824;9.346;2023-03-01T07:41:45;19.67;;;14.50;;
1613;SDS011;800;48.824;9.346;2023-03-01T07:44:10;19.30;;;14.73;;
1613;SDS011;800;48.824;9.346;2023-03-01T07:46:36;22.00;;;15.90;;
1613;SDS011;800;48.824;9.346;2023-03-01T07:49:01;22.10;;;15.73;;
1613;SDS011;800;48.824;9.346;2023-03-01T07:51:27;19.17;;;15.27;;
1613;SDS011;800;48.824;9.346;2023-03-01T07:53:53;20.60;;;14.90;;
1613;SDS011;800;48.824;9.346;2023-03-01T07:56:18;22.40;;;15.10;;
1613;SDS011;800;48.824;9.346;2023-03-01T07:58:45;21.27;;;16.53;;
1613;SDS011;800;48.824;9.346;2023-03-01T08:01:12;23.37;;;17.10;;
1613;SDS011;800;48.824;9.346;2023-03-01T08:03:41;20.10;;;15.53;;
1613;SDS011;800;48.824;9.346;2023-03-01T08:06:08;18.23;;;15.33;;
1613;SDS011;800;48.824;9.346;2023-03-01T08:08:35;19.00;;;15.37;;
1613;SDS011;800;48.824;9.346;2023-03-01T08:11:02;20.77;;;16.23;;
1613;SDS011;800;48.824;9.346;2023-03-01T08:13:29;20.43;;;16.03;;
1613;SDS011;800;48.824;9.346;2023-03-01T08:16:02;19.20;;;15.67;;
1613;SDS011;800;48.824;9.346;2023-03-01T08:18:29;20.50;;;15.50;;
1613;SDS011;800;48.824;9.346;2023-03-01T08:20:55;19.73;;;15.73;;
1613;SDS011;800;48.824;9.346;2023-03-01T08:23:20;20.93;;;14.70;;
1613;SDS011;800;48.824;9.346;2023-03-01T08:25:46;22.07;;;15.40;;
1613;SDS011;800;48.824;9.346;2023-03-01T08:28:12;26.70;;;17.27;;
1613;SDS011;800;48.824;9.346;2023-03-01T08:30:37;23.30;;;15.73;;
1613;SDS011;800;48.824;9.346;2023-03-01T08:33:03;20.87;;;15.60;;
1613;SDS011;800;48.824;9.346;2023-03-01T08:35:29;21.07;;;15.97;;
1613;SDS011;800;48.824;9.346;2023-03-01T08:37:54;22.87;;;17.80;;
1613;SDS011;800;48.824;9.346;2023-03-01T08:40:20;19.27;;;16.30;;
1613;SDS011;800;48.824;9.346;2023-03-01T08:42:45;21.23;;;16.13;;
1613;SDS011;800;48.824;9.346;2023-03-01T08:45:11;22.13;;;17.70;;
1613;SDS011;800;48.824;9.346;2023-03-01T08:47:39;21.40;;;16.53;;
1613;SDS011;800;48.824;9.346;2023-03-01T08:50:04;18.03;;;15.53;;
1613;SDS011;800;48.824;9.346;2023-03-01T08:52:32;18.77;;;15.07;;
1613;SDS011;800;48.824;9.346;2023-03-01T08:54:57;19.33;;;15.77;;
1613;SDS011;800;48.824;9.346;2023-03-01T08:57:23;18.43;;;15.40;;
1613;SDS011;800;48.824;9.346;2023-03-01T08:59:49;21.63;;;16.83;;
1613;SDS011;800;48.824;9.346;2023-03-01T09:02:15;18.83;;;14.60;;
1613;SDS011;800;48.824;9.346;2023-03-01T09:04:42;24.13;;;17.30;;
1613;SDS011;800;48.824;9.346;2023-03-01T09:07:07;20.03;;;15.23;;
1613;SDS011;800;48.824;9.346;2023-03-01T09:09:34;18.50;;;14.50;;
1613;SDS011;800;48.824;9.346;2023-03-01T09:12:00;21.70;;;14.70;;
1613;SDS011;800;48.824;9.346;2023-03-01T09:14:26;20.67;;;15.30;;
1613;SDS011;800;48.824;9.346;2023-03-01T09:16:52;19.03;;;14.97;;
1613;SDS011;800;48.824;9.346;2023-03-01T09:19:20;20.13;;;14.70;;
1613;SDS011;800;48.824;9.346;2023-03-01T09:21:45;19.03;;;15.20;;
1613;SDS011;800;48.824;9.346;2023-03-01T09:24:17;21.60;;;15.70;;
1613;SDS011;800;48.824;9.346;2023-03-01T09:26:44;18.83;;;14.77;;
1613;SDS011;800;48.824;9.346;2023-03-01T09:29:13;16.43;;;13.93;;
1613;SDS011;800;48.824;9.346;2023-03-01T09:31:40;18.93;;;14.83;;
1613;SDS011;800;48.824;9.346;2023-03-01T09:34:06;18.30;;;14.30;;
1613;SDS011;800;48.824;9.346;2023-03-01T09:36:32;21.90;;;16.50;;
1613;SDS011;800;48.824;9.346;2023-03-01T09:38:59;17.43;;;14.37;;
1613;SDS011;800;48.824;9.346;2023-03-01T09:46:47;18.70;;;14.90;;
1613;SDS011;800;48.824;9.346;2023-03-01T09:49:21;18.43;;;15.00;;
1613;SDS011;800;48.824;9.346;2023-03-01T09:54:34;18.37;;;16.10;;
1613;SDS011;800;48.824;9.346;2023-03-01T10:02:39;19.03;;;16.13;;
1613;SDS011;800;48.824;9.346;2023-03-01T10:10:34;17.00;;;15.20;;
1613;SDS011;800;48.824;9.346;2023-03-01T10:13:10;21.20;;;14.00;;
1613;SDS011;800;48.824;9.346;2023-03-01T10:16:04;17.80;;;14.40;;
1613;SDS011;800;48.824;9.346;2023-03-01T10:18:36;17.63;;;14.57;;
1613;SDS011;800;48.824;9.346;2023-03-01T10:21:22;16.60;;;14.53;;
1613;SDS011;800;48.824;9.346;2023-03-01T10:23:51;17.83;;;15.80;;
1613;SDS011;800;48.824;9.346;2023-03-01T10:28:59;16.63;;;13.37;;
1613;SDS011;800;48.824;9.346;2023-03-01T10:31:30;18.73;;;15.93;;
1613;SDS011;800;48.824;9.346;2023-03-01T10:34:28;14.40;;;12.90;;
1613;SDS011;800;48.824;9.346;2023-03-01T10:36:57;20.13;;;15.90;;
1613;SDS011;800;48.824;9.346;2023-03-01T10:39:33;17.40;;;14.47;;
1613;SDS011;800;48.824;9.346;2023-03-01T10:42:03;20.87;;;16.03;;
1613;SDS011;800;48.824;9.346;2023-03-01T10:44:35;18.43;;;15.20;;
1613;SDS011;800;48.824;9.346;2023-03-01T10:47:20;18.37;;;15.20;;
1613;SDS011;800;48.824;9.346;2023-03-01T10:49:57;19.80;;;16.00;;
1613;SDS011;800;48.824;9.346;2023-03-01T10:52:26;18.60;;;14.60;;
1613;SDS011;800;48.824;9.346;2023-03-01T10:55:39;18.67;;;14.67;;
1613;SDS011;800;48.824;9.346;2023-03-01T11:03:30;18.27;;;15.03;;
1613;SDS011;800;48.824;9.346;2023-03-01T11:09:13;16.23;;;12.90;;
1613;SDS011;800;48.824;9.346;2023-03-01T11:11:32;18.20;;;14.87;;
1613;SDS011;800;48.824;9.346;2023-03-01T11:14:00;16.40;;;14.57;;
1613;SDS011;800;48.824;9.346;2023-03-01T11:16:41;18.13;;;15.40;;
1613;SDS011;800;48.824;9.346;2023-03-01T11:21:35;18.50;;;15.10;;
1613;SDS011;800;48.824;9.346;2023-03-01T11:24:04;15.80;;;14.10;;
1613;SDS011;800;48.824;9.346;2023-03-01T11:26:36;22.60;;;15.00;;
1613;SDS011;800;48.824;9.346;2023-03-01T11:32:08;17.40;;;14.57;;
1613;SDS011;800;48.824;9.346;2023-03-01T11:34:38;15.90;;;14.00;;
1613;SDS011;800;48.824;9.346;2023-03-01T11:42:36;15.50;;;13.90;;
1613;SDS011;800;48.824;9.346;2023-03-01T11:45:16;16.03;;;13.27;;
1613;SDS011;800;48.824;9.346;2023-03-01T11:47:52;15.97;;;14.27;;
1613;SDS011;800;48.824;9.346;2023-03-01T11:53:08;15.00;;;13.37;;
1613;SDS011;800;48.824;9.346;2023-03-01T12:12:34;19.80;;;13.53;;
1613;SDS011;800;48.824;9.346;2023-03-01T12:17:44;18.13;;;14.13;;
1613;SDS011;800;48.824;9.346;2023-03-01T12:25:31;13.93;;;12.63;;
1613;SDS011;800;48.824;9.346;2023-03-01T12:39:49;16.60;;;13.00;;
1613;SDS011;800;48.824;9.346;2023-03-01T12:42:43;15.03;;;13.20;;
1613;SDS011;800;48.824;9.346;2023-03-01T12:51:17;16.07;;;12.63;;
1613;SDS011;800;48.824;9.346;2023-03-01T12:53:49;15.17;;;13.27;;
1613;SDS011;800;48.824;9.346;2023-03-01T12:56:20;16.50;;;14.60;;
1613;SDS011;800;48.824;9.346;2023-03-01T13:04:37;11.63;;;10.03;;
1613;SDS011;800;48.824;9.346;2023-03-01T13:07:29;12.43;;;10.97;;
1613;SDS011;800;48.824;9.346;2023-03-01T13:17:49;14.27;;;12.77;;
1613;SDS011;800;48.824;9.346;2023-03-01T13:20:18;17.37;;;13.87;;
1613;SDS011;800;48.824;9.346;2023-03-01T13:22:46;14.90;;;13.50;;
1613;SDS011;800;48.824;9.346;2023-03-01T13:25:18;20.40;;;14.70;;
1613;SDS011;800;48.824;9.346;2023-03-01T13:27:45;26.63;;;20.77;;
1613;SDS011;800;48.824;9.346;2023-03-01T13:35:51;15.23;;;12.80;;
1613;SDS011;800;48.824;9.346;2023-03-01T13:41:13;13.90;;;12.53;;
1613;SDS011;800;48.824;9.346;2023-03-01T13:44:01;14.40;;;12.90;;
1613;SDS011;800;48.824;9.346;2023-03-01T13:46:38;15.80;;;12.10;;
1613;SDS011;800;48.824;9.346;2023-03-01T13:49:04;14.40;;;13.00;;
1613;SDS011;800;48.824;9.346;2023-03-01T13:51:36;16.43;;;14.73;;
1613;SDS011;800;48.824;9.346;2023-03-01T13:54:02;16.93;;;15.20;;
1613;SDS011;800;48.824;9.346;2023-03-01T13:56:28;16.23;;;14.53;;
1613;SDS011;800;48.824;9.346;2023-03-01T14:01:30;17.70;;;15.57;;
1613;SDS011;800;48.824;9.346;2023-03-01T14:03:58;15.27;;;13.43;;
1613;SDS011;800;48.824;9.346;2023-03-01T14:06:27;14.23;;;12.73;;
1613;SDS011;800;48.824;9.346;2023-03-01T14:11:56;15.93;;;14.07;;
1613;SDS011;800;48.824;9.346;2023-03-01T14:14:39;14.63;;;13.13;;
1613;SDS011;800;48.824;9.346;2023-03-01T14:17:20;14.03;;;12.63;;
1613;SDS011;800;48.824;9.346;2023-03-01T14:19:57;16.30;;;14.30;;
1613;SDS011;800;48.824;9.346;2023-03-01T14:22:28;17.20;;;14.70;;
1613;SDS011;800;48.824;9.346;2023-03-01T14:25:17;16.00;;;14.00;;
1613;SDS011;800;48.824;9.346;2023-03-01T14:27:46;19.53;;;15.43;;
1613;SDS011;800;48.824;9.346;2023-03-01T14:30:37;16.77;;;14.93;;
1613;SDS011;800;48.824;9.346;2023-03-01T14:33:18;16.57;;;14.87;;
1613;SDS011;800;48.824;9.346;2023-03-01T14:35:58;16.90;;;14.67;;
1613;SDS011;800;48.824;9.346;2023-03-01T14:38:33;16.53;;;14.80;;
1613;SDS011;800;48.824;9.346;2023-03-01T14:41:01;17.13;;;15.40;;
1613;SDS011;800;48.824;9.346;2023-03-01T14:43:36;16.90;;;15.10;;
1613;SDS011;800;48.824;9.346;2023-03-01T14:46:05;17.50;;;14.80;;
1613;SDS011;800;48.824;9.346;2023-03-01T14:48:37;18.57;;;15.90;;
1613;SDS011;800;48.824;9.346;2023-03-01T14:51:04;19.63;;;15.80;;
1613;SDS011;800;48.824;9.346;2023-03-01T14:53:30;22.57;;;15.67;;
1613;SDS011;800;48.824;9.346;2023-03-01T14:55:57;19.00;;;15.17;;
1613;SDS011;800;48.824;9.346;2023-03-01T14:58:28;16.47;;;14.37;;
1613;SDS011;800;48.824;9.346;2023-03-01T15:00:58;15.93;;;14.13;;
1613;SDS011;800;48.824;9.346;2023-03-01T15:06:03;21.20;;;14.57;;
1613;SDS011;800;48.824;9.346;2023-03-01T15:08:30;19.07;;;16.60;;
1613;SDS011;800;48.824;9.346;2023-03-01T15:11:05;19.40;;;14.67;;
1613;SDS011;800;48.824;9.346;2023-03-01T15:13:43;17.60;;;13.93;;
1613;SDS011;800;48.824;9.346;2023-03-01T15:16:15;17.23;;;14.87;;
1613;SDS011;800;48.824;9.346;2023-03-01T15:21:46;17.03;;;14.23;;
1613;SDS011;800;48.824;9.346;2023-03-01T15:24:17;21.00;;;15.70;;
1613;SDS011;800;48.824;9.346;2023-03-01T15:26:52;20.33;;;14.93;;
1613;SDS011;800;48.824;9.346;2023-03-01T15:29:32;18.47;;;15.87;;
1613;SDS011;800;48.824;9.346;2023-03-01T15:32:06;17.80;;;15.90;;
1613;SDS011;800;48.824;9.346;2023-03-01T15:34:52;19.50;;;15.60;;
1613;SDS011;800;48.824;9.346;2023-03-01T15:40:27;16.60;;;14.90;;
1613;SDS011;800;48.824;9.346;2023-03-01T15:43:06;18.20;;;16.10;;
1613;SDS011;800;48.824;9.346;2023-03-01T15:45:58;20.07;;;16.47;;
1613;SDS011;800;48.824;9.346;2023-03-01T15:48:23;19.03;;;15.43;;
1613;SDS011;800;48.824;9.346;2023-03-01T15:50:57;18.70;;;15.50;;
1613;SDS011;800;48.824;9.346;2023-03-01T15:53:24;18.43;;;15.13;;
1613;SDS011;800;48.824;9.346;2023-03-01T15:55:51;18.30;;;14.90;;
1613;SDS011;800;48.824;9.346;2023-03-01T15:58:18;17.97;;;15.40;;
1613;SDS011;800;48.824;9.346;2023-03-01T16:00:45;17.60;;;14.53;;
1613;SDS011;800;48.824;9.346;2023-03-01T16:03:13;18.97;;;15.87;;
1613;SDS011;800;48.824;9.346;2023-03-01T16:05:46;17.97;;;15.23;;
1613;SDS011;800;48.824;9.346;2023-03-01T16:08:12;19.80;;;14.63;;
1613;SDS011;800;48.824;9.346;2023-03-01T16:10:37;17.30;;;14.50;;
1613;SDS011;800;48.824;9.346;2023-03-01T16:13:05;19.43;;;15.87;;
1613;SDS011;800;48.824;9.346;2023-03-01T16:15:32;17.80;;;15.90;;
1613;SDS011;800;48.824;9.346;2023-03-01T16:17:59;19.10;;;14.53;;
1613;SDS011;800;48.824;9.346;2023-03-01T16:20:25;18.83;;;14.90;;
1613;SDS011;800;48.824;9.346;2023-03-01T16:22:51;18.03;;;14.40;;
1613;SDS011;800;48.824;9.346;2023-03-01T16:25:18;15.83;;;13.20;;
1613;SDS011;800;48.824;9.346;2023-03-01T16:27:45;18.10;;;14.40;;
1613;SDS011;800;48.824;9.346;2023-03-01T16:30:13;16.63;;;13.87;;
1613;SDS011;800;48.824;9.346;2023-03-01T16:32:39;23.60;;;15.10;;
1613;SDS011;800;48.824;9.346;2023-03-01T16:35:06;17.70;;;14.80;;
1613;SDS011;800;48.824;9.346;2023-03-01T16:37:32;19.57;;;14.27;;
1613;SDS011;800;48.824;9.346;2023-03-01T16:39:59;18.77;;;15.40;;
1613;SDS011;800;48.824;9.346;2023-03-01T16:42:24;22.83;;;15.87;;
1613;SDS011;800;48.824;9.346;2023-03-01T16:44:54;19.67;;;15.20;;
1613;SDS011;800;48.824;9.346;2023-03-01T16:47:21;20.53;;;15.20;;
1613;SDS011;800;48.824;9.346;2023-03-01T16:49:46;22.63;;;15.90;;
1613;SDS011;800;48.824;9.346;2023-03-01T16:52:12;21.10;;;14.90;;
1613;SDS011;800;48.824;9.346;2023-03-01T16:54:38;22.53;;;14.37;;
1613;SDS011;800;48.824;9.346;2023-03-01T16:57:03;16.37;;;13.83;;
1613;SDS011;800;48.824;9.346;2023-03-01T16:59:29;18.10;;;14.33;;
1613;SDS011;800;48.824;9.346;2023-03-01T17:01:55;15.10;;;13.13;;
1613;SDS011;800;48.824;9.346;2023-03-01T17:04:20;21.80;;;17.43;;
1613;SDS011;800;48.824;9.346;2023-03-01T17:06:46;16.93;;;14.80;;
1613;SDS011;800;48.824;9.346;2023-03-01T17:09:13;17.37;;;13.37;;
1613;SDS011;800;48.824;9.346;2023-03-01T17:11:39;17.37;;;14.33;;
1613;SDS011;800;48.824;9.346;2023-03-01T17:14:05;18.43;;;14.30;;
1613;SDS011;800;48.824;9.346;2023-03-01T17:16:31;17.60;;;13.90;;
1613;SDS011;800;48.824;9.346;2023-03-01T17:18:57;18.50;;;15.70;;
1613;SDS011;800;48.824;9.346;2023-03-01T17:21:22;19.00;;;13.90;;
1613;SDS011;800;48.824;9.346;2023-03-01T17:23:48;21.43;;;15.80;;
1613;SDS011;800;48.824;9.346;2023-03-01T17:26:14;19.43;;;15.10;;
1613;SDS011;800;48.824;9.346;2023-03-01T17:28:40;17.70;;;14.60;;